Terminal Aerodrome Forecast
Issued by NWS

Home | Current Version | Previous Version | Text Only | Print | Product List | Glossary On
Versions: 1 2 3 4 5 6 7 8 9 10 11 12 13 14
000
FTUS45 KRIW 202200 AAA
TAFBPI
TAF AMD
KBPI 202234Z 2023/2118 27012G18KT P6SM VCSH SCT090 BKN150
      TEMPO 2023/2102 VRB20G35KT
     FM210200 34008KT P6SM FEW100 BKN150
     FM210800 VRB04KT P6SM SCT200=

USA.gov is the U.S. government's official web portal to all federal, state and local government web resources and services.